Time;durP1;ratioP1;P1;durP2;ratioP2;P2;SDS_P1;SDS_P2;PMS_P1;PMS_P2;Temp;Humidity;BMP_temperature;BMP_pressure;BME280_temperature;BME280_humidity;BME280_pressure;Samples;Min_cycle;Max_cycle;Signal;HPM_P1;HPM_P2
2022/12/22 03:27:43;;;;;;;17.00;16.17;;;;;;;8.12;100.00;99848.59;6023529;23;20201;-69
2022/12/22 03:30:09;;;;;;;4.30;4.10;;;;;;;7.97;100.00;99806.69;6144584;23;20031;-68
2022/12/22 03:32:36;;;;;;;4.28;4.07;;;;;;;7.94;100.00;99791.19;6140404;23;20021;-70
2022/12/22 03:35:02;;;;;;;4.60;4.40;;;;;;;8.31;100.00;99843.16;6137989;23;20017;-70
2022/12/22 03:37:28;;;;;;;5.00;4.70;;;;;;;8.33;100.00;99836.06;6170770;23;20039;-70
2022/12/22 03:39:55;;;;;;;4.50;4.30;;;;;;;7.90;100.00;99770.56;6141056;23;20046;-70
2022/12/22 03:47:53;;;;;;;4.40;4.20;;;;;;;8.38;100.00;99834.88;6145064;23;20025;-70
2022/12/22 03:50:20;;;;;;;4.13;3.92;;;;;;;8.12;100.00;99784.09;6149000;23;20025;-70
2022/12/22 03:52:46;;;;;;;4.03;3.83;;;;;;;8.37;100.00;99816.66;6152521;23;20028;-69
2022/12/22 03:55:13;;;;;;;4.38;4.18;;;;;;;8.39;100.00;99825.25;6141747;23;20066;-70
2022/12/22 03:57:39;;;;;;;4.55;4.35;;;;;;;8.44;100.00;99815.44;6172599;23;20073;-72
2022/12/22 04:00:07;;;;;;;5.03;4.75;;;;;;;8.35;100.00;99800.22;6130650;23;20087;-71
2022/12/22 04:02:34;;;;;;;4.00;3.80;;;;;;;8.32;100.00;99787.34;6149088;23;20027;-71
2022/12/22 04:05:00;;;;;;;4.47;4.28;;;;;;;8.22;100.00;99766.13;6090341;23;20091;-70
2022/12/22 04:07:27;;;;;;;4.38;4.18;;;;;;;7.92;100.00;99709.44;6146932;23;20025;-72
2022/12/22 04:12:53;;;;;;;4.30;4.10;;;;;;;8.35;100.00;99781.94;6142950;23;20048;-70
2022/12/22 04:15:25;;;;;;;4.30;4.10;;;;;;;8.43;100.00;99811.13;6119233;23;20013;-70
2022/12/22 04:17:52;;;;;;;4.22;4.03;;;;;;;8.43;100.00;99790.19;6147761;23;20029;-70
2022/12/22 04:20:19;;;;;;;4.60;4.30;;;;;;;8.42;100.00;99777.22;6092504;23;20042;-72
2022/12/22 04:22:46;;;;;;;4.50;4.30;;;;;;;8.15;100.00;99736.84;6118122;23;20029;-69
2022/12/22 04:25:13;;;;;;;4.30;4.10;;;;;;;8.41;100.00;99775.50;6131064;23;20029;-71
2022/12/22 04:27:40;;;;;;;4.22;4.03;;;;;;;8.39;100.00;99765.97;6118225;23;20029;-72
2022/12/22 04:30:07;;;;;;;4.53;4.32;;;;;;;8.40;100.00;99772.06;6105791;23;20110;-71
2022/12/22 04:32:33;;;;;;;4.00;3.80;;;;;;;7.64;100.00;99644.03;6118620;23;20413;-70
2022/12/22 04:35:00;;;;;;;4.40;4.20;;;;;;;7.97;100.00;99686.50;6101626;23;20541;-72
2022/12/22 04:37:26;;;;;;;4.00;3.80;;;;;;;8.44;100.00;99770.13;6088454;23;20041;-69
2022/12/22 04:39:53;;;;;;;4.25;4.05;;;;;;;8.46;100.00;99761.28;6089777;23;20093;-70
2022/12/22 04:42:19;;;;;;;4.38;4.07;;;;;;;7.77;100.00;99645.00;6148396;23;20071;-70
2022/12/22 04:44:45;;;;;;;4.70;4.50;;;;;;;8.19;100.00;99714.00;6093100;23;20801;-71
2022/12/22 04:47:12;;;;;;;4.05;3.85;;;;;;;8.38;100.00;99743.38;6132071;23;20044;-71
2022/12/22 04:49:41;;;;;;;4.55;4.30;;;;;;;8.29;100.00;99727.38;6118207;23;20021;-72
2022/12/22 04:52:07;;;;;;;5.13;4.82;;;;;;;8.09;100.00;99695.41;6117138;23;20135;-70
2022/12/22 04:54:34;;;;;;;4.80;4.55;;;;;;;8.37;100.00;99731.22;6092826;23;20036;-70
2022/12/22 04:57:00;;;;;;;5.35;4.97;;;;;;;8.54;100.00;99768.69;6121911;23;20017;-70
2022/12/22 04:59:27;;;;;;;4.50;4.30;;;;;;;8.53;100.00;99757.34;6120399;23;20024;-70
2022/12/22 05:01:53;;;;;;;4.72;4.43;;;;;;;8.36;100.00;99732.19;6166986;23;20040;-69
2022/12/22 05:04:20;;;;;;;4.18;3.97;;;;;;;8.38;100.00;99730.31;6161668;23;20052;-70
2022/12/22 05:06:49;;;;;;;4.22;4.03;;;;;;;8.58;100.00;99751.88;6120722;23;20033;-70
2022/12/22 05:09:15;;;;;;;4.50;4.30;;;;;;;8.57;100.00;99743.16;6146907;23;20036;-70
2022/12/22 05:11:42;;;;;;;4.57;4.38;;;;;;;8.47;100.00;99712.44;6124714;23;20036;-70
2022/12/22 05:14:08;;;;;;;4.10;3.90;;;;;;;8.31;100.00;99692.38;6162690;23;20556;-70
2022/12/22 05:16:34;;;;;;;4.10;3.90;;;;;;;8.68;100.00;99733.84;6143168;23;20036;-71
2022/12/22 05:19:01;;;;;;;4.65;4.45;;;;;;;8.75;100.00;99737.78;6159675;23;20036;-70
2022/12/22 05:21:28;;;;;;;4.68;4.47;;;;;;;8.61;100.00;99712.44;6137671;23;20040;-70
2022/12/22 05:23:56;;;;;;;4.53;4.32;;;;;;;8.75;100.00;99736.00;6111567;23;20037;-70
2022/12/22 05:26:23;;;;;;;4.18;3.97;;;;;;;7.63;100.00;99554.41;6170070;23;20026;-70
2022/12/22 05:28:49;;;;;;;4.15;3.97;;;;;;;8.75;100.00;99738.59;6138033;23;20353;-69
2022/12/22 05:31:21;;;;;;;4.10;3.90;;;;;;;8.75;100.00;99736.00;6171421;23;20780;-71
2022/12/22 05:33:49;;;;;;;4.13;3.90;;;;;;;8.44;100.00;99678.59;6143190;23;20017;-70
2022/12/22 05:36:16;;;;;;;4.35;4.10;;;;;;;8.26;100.00;99656.97;6135730;23;20051;-71
2022/12/22 05:38:46;;;;;;;4.68;4.38;;;;;;;8.71;100.00;99726.66;6135679;23;20353;-70
2022/12/22 05:41:12;;;;;;;4.40;4.20;;;;;;;8.67;100.00;99719.09;6149919;23;20029;-71
2022/12/22 05:43:39;;;;;;;4.07;3.88;;;;;;;7.69;100.00;99571.50;6134087;23;20024;-70
2022/12/22 05:46:09;;;;;;;4.90;4.60;;;;;;;8.75;100.00;99741.22;6164201;23;20083;-70
2022/12/22 05:48:36;;;;;;;5.20;4.80;;;;;;;8.69;100.00;99752.06;6140538;23;20115;-70
2022/12/22 05:51:08;;;;;;;6.22;5.72;;;;;;;8.48;100.00;99714.09;6126392;23;20159;-70
2022/12/22 05:53:36;;;;;;;4.93;4.63;;;;;;;8.44;100.00;99707.38;6139846;23;20669;-70
2022/12/22 05:56:03;;;;;;;5.40;5.10;;;;;;;8.61;100.00;99733.38;6127192;23;20092;-70
2022/12/22 05:58:29;;;;;;;4.80;4.60;;;;;;;8.27;100.00;99696.09;6144328;23;20017;-70
2022/12/22 06:00:57;;;;;;;4.50;4.30;;;;;;;8.32;100.00;99706.31;6169514;23;20020;-70
2022/12/22 06:03:27;;;;;;;4.80;4.50;;;;;;;8.57;100.00;99740.53;6146648;23;20518;-70
2022/12/22 06:05:55;;;;;;;5.10;4.80;;;;;;;8.45;100.00;99725.59;6168340;23;20538;-70
2022/12/22 06:08:22;;;;;;;4.82;4.63;;;;;;;8.12;100.00;99674.34;6110037;23;20480;-71
2022/12/22 06:10:48;;;;;;;4.10;3.90;;;;;;;8.47;100.00;99738.56;6143876;23;20044;-69
2022/12/22 06:13:15;;;;;;;5.00;4.80;;;;;;;8.31;100.00;99708.06;6162463;23;20659;-71
2022/12/22 06:15:41;;;;;;;4.82;4.63;;;;;;;7.93;100.00;99660.66;6118467;23;20416;-70
2022/12/22 06:18:08;;;;;;;4.78;4.47;;;;;;;8.20;100.00;99705.25;6160194;23;20021;-70
2022/12/22 06:20:34;;;;;;;4.68;4.47;;;;;;;8.53;100.00;99765.19;6139359;23;20117;-70
2022/12/22 06:23:01;;;;;;;5.00;4.78;;;;;;;8.36;100.00;99726.94;6159093;23;20024;-70
2022/12/22 06:25:27;;;;;;;4.43;4.22;;;;;;;8.39;100.00;99728.53;6114972;23;20467;-70
2022/12/22 06:27:53;;;;;;;5.50;5.20;;;;;;;8.36;100.00;99726.94;6170522;23;20031;-70
2022/12/22 06:30:20;;;;;;;4.95;4.28;;;;;;;8.12;100.00;99687.41;6141705;23;20029;-71
2022/12/22 06:32:54;;;;;;;4.70;4.50;;;;;;;8.39;100.00;99729.38;6145197;23;20021;-70
2022/12/22 06:35:21;;;;;;;4.35;4.15;;;;;;;8.59;100.00;99758.75;6137400;23;20029;-71
2022/12/22 06:37:47;;;;;;;5.13;4.78;;;;;;;8.37;100.00;99720.78;6146525;23;20074;-70
2022/12/22 06:40:13;;;;;;;5.25;4.95;;;;;;;8.60;100.00;99770.94;6127660;23;20047;-70
2022/12/22 06:45:43;;;;;;;4.40;4.20;;;;;;;8.52;100.00;99775.75;6147281;23;20439;-70
2022/12/22 06:48:11;;;;;;;5.35;4.95;;;;;;;8.33;100.00;99753.25;6134771;23;20029;-71
2022/12/22 06:50:37;;;;;;;4.93;4.57;;;;;;;8.27;100.00;99748.38;6171318;23;20368;-70
2022/12/22 06:53:04;;;;;;;5.10;4.80;;;;;;;8.49;100.00;99786.41;6115353;23;20629;-70
2022/12/22 06:55:31;;;;;;;5.15;4.70;;;;;;;8.16;100.00;99749.00;6175190;23;20474;-71
2022/12/22 06:57:57;;;;;;;5.28;4.88;;;;;;;7.55;100.00;99651.47;6143477;23;20044;-70
2022/12/22 07:00:24;;;;;;;7.28;4.90;;;;;;;8.22;100.00;99765.25;6163839;23;20028;-70
2022/12/22 07:02:51;;;;;;;5.35;4.95;;;;;;;8.39;100.00;99793.88;6143521;23;20128;-71
2022/12/22 07:05:18;;;;;;;4.97;4.68;;;;;;;7.81;100.00;99696.16;6164414;23;20119;-70
2022/12/22 07:07:44;;;;;;;5.05;4.65;;;;;;;8.27;100.00;99771.91;6143262;23;20032;-71
2022/12/22 07:10:11;;;;;;;5.40;4.95;;;;;;;7.80;100.00;99694.47;6164228;23;20028;-71
2022/12/22 07:12:38;;;;;;;5.25;4.95;;;;;;;7.95;100.00;99745.84;6144437;23;20033;-71
2022/12/22 07:15:05;;;;;;;5.70;5.30;;;;;;;8.29;100.00;99805.81;6145368;23;20032;-70
2022/12/22 07:17:31;;;;;;;5.25;4.95;;;;;;;7.88;100.00;99752.34;6172422;23;20019;-70
2022/12/22 07:19:57;;;;;;;5.97;4.78;;;;;;;8.32;100.00;99823.94;6143723;23;20029;-70
2022/12/22 07:22:24;;;;;;;4.95;4.60;;;;;;;8.34;100.00;99828.16;6131949;23;20589;-72
2022/12/22 07:24:55;;;;;;;4.85;4.55;;;;;;;8.35;100.00;99840.28;6151951;23;20502;-69
2022/12/22 07:27:22;;;;;;;5.45;5.10;;;;;;;7.81;100.00;99745.78;6145808;23;20035;-69
2022/12/22 07:29:48;;;;;;;5.03;4.72;;;;;;;8.15;100.00;99807.44;6174389;23;20017;-72
2022/12/22 07:32:15;;;;;;;5.00;4.70;;;;;;;8.44;100.00;99859.88;6164594;23;20204;-69
2022/12/22 07:34:41;;;;;;;5.15;4.75;;;;;;;8.35;100.00;99837.66;6155097;23;20079;-70
2022/12/22 07:37:07;;;;;;;6.15;5.65;;;;;;;8.37;100.00;99851.50;6139148;23;20459;-70
2022/12/22 07:39:34;;;;;;;5.20;4.80;;;;;;;8.19;100.00;99826.41;6149655;23;20025;-71
2022/12/22 07:44:45;;;;;;;4.93;4.63;;;;;;;8.08;100.00;99807.84;6152893;23;20029;-70
2022/12/22 07:47:12;;;;;;;5.47;5.03;;;;;;;8.65;100.00;99894.41;6168513;23;20110;-70
2022/12/22 07:52:23;;;;;;;7.35;5.35;;;;;;;8.08;100.00;99806.09;6189093;23;20024;-70
2022/12/22 07:54:50;;;;;;;5.30;4.82;;;;;;;8.13;100.00;99824.97;6146777;23;20409;-70
2022/12/22 07:57:16;;;;;;;5.00;4.70;;;;;;;8.71;100.00;99922.84;6179698;23;20048;-70
2022/12/22 07:59:43;;;;;;;5.97;5.32;;;;;;;8.67;100.00;99902.19;6141765;23;20096;-70
2022/12/22 08:02:10;;;;;;;5.63;5.32;;;;;;;8.85;100.00;99931.69;6140603;23;20694;-71
2022/12/22 08:04:36;;;;;;;4.72;4.43;;;;;;;8.89;100.00;99923.56;6138614;23;20040;-70
2022/12/22 08:07:03;;;;;;;6.00;5.60;;;;;;;8.92;100.00;99931.25;6146669;23;20020;-70
2022/12/22 08:09:29;;;;;;;6.57;5.20;;;;;;;8.95;100.00;99925.81;6175162;23;20127;-70
2022/12/22 08:11:56;;;;;;;6.47;5.97;;;;;;;8.58;100.00;99848.63;6142437;23;20028;-70
2022/12/22 08:14:22;;;;;;;5.97;5.45;;;;;;;8.94;100.00;99915.44;6168313;23;20028;-69
2022/12/22 08:16:48;;;;;;;4.85;4.55;;;;;;;9.01;100.00;99939.50;6143239;23;20036;-69
2022/12/22 08:19:15;;;;;;;6.82;6.20;;;;;;;8.69;100.00;99887.25;6172508;23;20073;-69
2022/12/22 08:21:41;;;;;;;6.22;5.82;;;;;;;8.59;100.00;99889.53;6146590;23;20080;-69
2022/12/22 08:24:17;;;;;;;6.55;6.15;;;;;;;9.03;100.00;99958.56;6147128;23;20033;-69
2022/12/22 08:26:47;;;;;;;9.73;7.20;;;;;;;8.99;100.00;99977.03;6177769;23;20081;-69
2022/12/22 08:29:36;;;;;;;7.20;6.57;;;;;;;9.01;100.00;99979.59;6119416;23;20024;-69
2022/12/22 08:32:03;;;;;;;6.55;5.82;;;;;;;9.00;100.00;99993.63;6141336;23;20508;-70
2022/12/22 08:34:30;;;;;;;6.35;5.85;;;;;;;8.97;100.00;99999.84;6141142;23;20551;-69
2022/12/22 08:36:59;;;;;;;7.95;7.25;;;;;;;8.47;100.00;99917.22;6141556;23;20036;-70
2022/12/22 08:39:30;;;;;;;6.85;6.35;;;;;;;9.00;100.00;100009.31;6171048;23;20284;-69
2022/12/22 08:41:59;;;;;;;8.93;8.10;;;;;;;9.04;100.00;100018.69;6140614;23;20033;-72
2022/12/22 08:44:27;;;;;;;7.05;6.43;;;;;;;8.93;100.00;99992.25;6162503;23;20091;-67
2022/12/22 08:46:56;;;;;;;6.53;6.03;;;;;;;9.08;100.00;100012.34;6139980;23;20110;-65
2022/12/22 08:49:23;;;;;;;7.03;6.38;;;;;;;9.12;100.00;100026.94;6146508;23;20036;-68
2022/12/22 08:51:51;;;;;;;7.32;6.75;;;;;;;9.01;100.00;100013.59;6132899;23;20454;-72
2022/12/22 08:54:18;;;;;;;13.60;8.25;;;;;;;8.63;100.00;99972.13;6172327;23;20031;-69
2022/12/22 08:56:45;;;;;;;8.57;6.38;;;;;;;9.09;100.00;100040.19;6143648;23;20025;-74
2022/12/22 08:59:12;;;;;;;8.02;7.32;;;;;;;8.52;100.00;99941.34;6173203;23;20024;-73
2022/12/22 09:01:46;;;;;;;8.43;7.15;;;;;;;9.15;100.00;100034.59;6142404;23;20033;-69
2022/12/22 09:04:15;;;;;;;8.55;7.40;;;;;;;9.16;100.00;100051.16;6174054;23;20093;-73
2022/12/22 09:06:42;;;;;;;7.03;5.57;;;;;;;8.81;100.00;99996.41;6114567;23;20029;-76
2022/12/22 09:09:12;;;;;;;9.77;7.32;;;;;;;8.36;100.00;99936.09;6163324;23;20077;-73
2022/12/22 09:11:39;;;;;;;12.10;8.40;;;;;;;9.14;100.00;100051.25;6140416;23;20021;-71
2022/12/22 09:14:08;;;;;;;6.40;5.90;;;;;;;8.50;100.00;99950.19;6159091;23;20476;-74
2022/12/22 09:16:35;;;;;;;6.43;5.97;;;;;;;8.59;100.00;99963.59;6136006;23;20029;-73
2022/12/22 09:19:02;;;;;;;7.55;6.78;;;;;;;7.56;100.00;99794.16;6163392;23;20016;-70
2022/12/22 09:21:29;;;;;;;8.50;7.70;;;;;;;9.09;100.00;100049.81;6136170;23;20089;-69
2022/12/22 09:23:56;;;;;;;10.82;8.15;;;;;;;9.21;100.00;100090.19;6175667;23;20024;-74
2022/12/22 09:26:24;;;;;;;7.13;6.53;;;;;;;9.29;100.00;100101.91;6137520;23;20488;-73
2022/12/22 09:28:51;;;;;;;7.05;6.45;;;;;;;9.29;100.00;100125.47;6168854;23;20083;-72
2022/12/22 09:31:19;;;;;;;7.97;7.32;;;;;;;9.14;100.00;100087.91;6137213;23;20025;-76
2022/12/22 09:33:46;;;;;;;6.43;5.85;;;;;;;9.11;100.00;100074.97;6169284;23;20340;-69
2022/12/22 09:36:17;;;;;;;10.35;8.07;;;;;;;9.05;100.00;100079.72;6138914;23;20013;-76
2022/12/22 09:38:44;;;;;;;7.60;6.97;;;;;;;9.39;100.00;100128.41;6170930;23;20021;-70
2022/12/22 09:41:30;;;;;;;7.32;5.85;;;;;;;9.08;100.00;100080.41;6143940;23;20017;-71
2022/12/22 09:44:01;;;;;;;8.23;7.03;;;;;;;9.34;100.00;100122.56;6173318;23;20029;-72
2022/12/22 09:46:32;;;;;;;7.13;6.50;;;;;;;9.41;100.00;100126.56;6143211;23;20539;-72
2022/12/22 09:48:59;;;;;;;7.63;5.90;;;;;;;8.99;100.00;100067.81;6163613;23;20358;-73
2022/12/22 09:51:25;;;;;;;8.95;8.00;;;;;;;8.93;100.00;100081.25;6128713;23;20018;-72
2022/12/22 09:53:58;;;;;;;7.55;6.90;;;;;;;9.46;100.00;100140.25;6174432;23;20035;-73
2022/12/22 09:56:27;;;;;;;7.72;6.88;;;;;;;9.49;100.00;100161.00;6137345;23;20007;-73
2022/12/22 09:58:54;;;;;;;8.07;7.10;;;;;;;8.93;100.00;100092.53;6138998;23;20025;-71
2022/12/22 10:01:38;;;;;;;8.10;7.38;;;;;;;9.49;100.00;100174.09;6167946;23;20021;-71
2022/12/22 10:04:30;;;;;;;6.55;6.05;;;;;;;9.06;100.00;100133.75;6136294;23;20025;-74
2022/12/22 10:07:06;;;;;;;7.72;6.95;;;;;;;9.44;100.00;100180.53;6119259;23;20103;-70
2022/12/22 10:09:35;;;;;;;10.43;7.13;;;;;;;8.71;100.00;100071.94;6172290;23;20032;-71
2022/12/22 10:12:20;;;;;;;7.13;6.43;;;;;;;9.41;100.00;100196.44;6140452;23;20102;-71
2022/12/22 10:14:48;;;;;;;7.38;6.65;;;;;;;8.40;100.00;100054.44;6170670;23;20038;-72
2022/12/22 10:17:32;;;;;;;8.75;7.85;;;;;;;8.96;100.00;100143.88;6133908;23;20029;-73
2022/12/22 10:20:17;;;;;;;7.25;6.65;;;;;;;9.29;100.00;100192.69;6155697;23;20029;-72
2022/12/22 10:22:48;;;;;;;6.88;6.32;;;;;;;8.47;100.00;100062.81;6133345;23;20021;-72
2022/12/22 10:25:31;;;;;;;8.88;6.43;;;;;;;9.38;100.00;100197.41;6162585;23;20024;-72
2022/12/22 10:28:21;;;;;;;6.68;5.88;;;;;;;9.50;100.00;100209.84;6112654;23;20022;-70
2022/12/22 10:30:48;;;;;;;7.35;5.80;;;;;;;9.58;100.00;100210.28;6172368;23;20036;-71
2022/12/22 10:33:20;;;;;;;15.10;7.47;;;;;;;8.89;100.00;100127.66;6133189;23;20030;-71
2022/12/22 10:35:55;;;;;;;6.78;6.25;;;;;;;8.82;100.00;100130.69;6167373;23;20025;-72
2022/12/22 10:38:37;;;;;;;10.10;7.30;;;;;;;8.49;100.00;100074.88;6132390;23;20030;-71
2022/12/22 10:41:15;;;;;;;11.57;7.57;;;;;;;9.35;100.00;100227.25;6171578;23;20021;-70
2022/12/22 10:43:55;;;;;;;7.38;6.70;;;;;;;9.37;100.00;100229.78;6145991;23;20403;-71
2022/12/22 10:46:32;;;;;;;9.18;7.65;;;;;;;9.35;100.00;100208.06;6151108;23;20522;-72
2022/12/22 10:49:25;;;;;;;13.00;7.35;;;;;;;9.47;100.00;100261.56;6135717;23;20363;-72
2022/12/22 10:51:55;;;;;;;9.00;8.23;;;;;;;9.46;100.00;100231.91;6149830;23;20656;-72
2022/12/22 10:54:34;;;;;;;9.40;7.53;;;;;;;9.53;100.00;100238.47;6112973;23;20031;-72
2022/12/22 10:57:27;;;;;;;15.70;9.27;;;;;;;9.63;100.00;100241.44;6166368;23;20027;-72
2022/12/22 10:59:56;;;;;;;9.05;8.15;;;;;;;9.50;100.00;100227.31;6131842;23;20056;-72
2022/12/22 11:02:25;;;;;;;9.57;6.93;;;;;;;9.75;100.00;100245.16;6145185;23;20021;-73
2022/12/22 11:04:59;;;;;;;8.30;7.43;;;;;;;9.57;100.00;100216.44;6148890;23;20055;-72
2022/12/22 11:07:30;;;;;;;9.77;7.55;;;;;;;9.76;100.00;100245.09;6147414;23;20736;-71
2022/12/22 11:09:57;;;;;;;7.38;6.35;;;;;;;9.31;100.00;100183.00;6126261;23;20029;-73
2022/12/22 11:12:38;;;;;;;10.02;7.05;;;;;;;9.83;100.00;100250.81;6151032;23;20076;-73
2022/12/22 11:15:29;;;;;;;10.68;7.95;;;;;;;9.90;100.00;100252.16;6149770;23;20025;-73
2022/12/22 11:18:07;;;;;;;8.43;7.35;;;;;;;10.01;100.00;100259.41;6142849;23;20020;-72
2022/12/22 11:21:11;;;;;;;8.70;7.22;;;;;;;10.01;100.00;100263.81;6142749;23;20025;-72
2022/12/22 11:24:07;;;;;;;8.57;7.68;;;;;;;10.00;100.00;100262.94;6145517;23;20065;-71
2022/12/22 11:26:54;;;;;;;7.13;6.40;;;;;;;8.92;100.00;100074.31;6135258;23;20025;-72
2022/12/22 11:30:01;;;;;;;7.55;6.85;;;;;;;9.96;100.00;100249.19;6142003;23;20027;-71
2022/12/22 11:32:56;;;;;;;10.13;7.10;;;;;;;9.99;100.00;100275.22;6146602;23;20029;-73
2022/12/22 11:35:35;;;;;;;9.90;7.32;;;;;;;9.53;100.00;100193.94;6148112;23;20092;-72
2022/12/22 11:38:20;;;;;;;8.35;6.40;;;;;;;10.24;100.00;100272.97;6172228;23;20001;-73
2022/12/22 11:40:53;;;;;;;7.95;7.15;;;;;;;10.31;100.00;100277.81;6151971;23;20017;-74
2022/12/22 11:43:22;;;;;;;;;;;;;;;10.48;100.00;100286.47;6180806;23;20020;-73
2022/12/22 11:46:19;;;;;;;7.10;6.15;;;;;;;10.23;100.00;100268.69;6139075;23;20371;-73
2022/12/22 11:48:49;;;;;;;7.85;7.05;;;;;;;10.35;100.00;100304.72;6178237;23;20073;-73
2022/12/22 11:51:43;;;;;;;6.32;5.82;;;;;;;10.28;100.00;100293.69;6147031;23;20550;-74
2022/12/22 11:54:40;;;;;;;10.40;6.70;;;;;;;10.30;100.00;100299.75;6177818;23;20051;-73
2022/12/22 11:57:27;;;;;;;9.02;7.05;;;;;;;10.42;100.00;100297.34;6143323;23;20024;-73
2022/12/22 12:00:09;;;;;;;8.20;7.38;;;;;;;10.34;100.00;100264.53;6178788;23;20462;-73
2022/12/22 12:03:12;;;;;;;14.63;8.15;;;;;;;10.49;100.00;100296.06;6140693;23;20024;-74
2022/12/22 12:05:50;;;;;;;7.47;6.78;;;;;;;10.27;100.00;100270.19;6147414;23;20108;-73
2022/12/22 12:08:38;;;;;;;16.08;7.22;;;;;;;10.44;100.00;100303.34;6118372;23;20084;-73
2022/12/22 12:11:28;;;;;;;10.85;8.57;;;;;;;9.90;100.00;100198.88;6180441;23;20019;-73
2022/12/22 12:14:01;;;;;;;7.70;7.00;;;;;;;10.53;100.00;100277.41;6147399;23;20048;-73
2022/12/22 12:16:47;;;;;;;11.20;8.80;;;;;;;10.63;100.00;100313.63;6176698;23;20500;-75
2022/12/22 12:19:51;;;;;;;10.50;8.32;;;;;;;10.74;100.00;100319.06;6141299;23;20098;-73
2022/12/22 12:22:44;;;;;;;9.82;7.55;;;;;;;10.98;100.00;100329.88;6061553;23;20046;-73
2022/12/22 12:25:29;;;;;;;8.43;6.85;;;;;;;10.93;100.00;100318.84;6145688;23;20470;-73
2022/12/22 12:28:08;;;;;;;9.95;7.75;;;;;;;10.33;100.00;100220.03;6178401;23;20032;-73
2022/12/22 12:30:49;;;;;;;11.32;7.10;;;;;;;11.12;100.00;100315.94;6137106;23;20028;-72
2022/12/22 12:33:29;;;;;;;7.60;6.90;;;;;;;10.55;100.00;100251.94;6151633;23;20032;-72
2022/12/22 12:36:06;;;;;;;7.45;6.10;;;;;;;11.43;100.00;100325.41;6176722;23;20047;-73
2022/12/22 12:38:44;;;;;;;7.30;6.40;;;;;;;11.39;100.00;100313.41;6120105;23;20034;-72
2022/12/22 12:41:39;;;;;;;7.10;6.50;;;;;;;11.36;100.00;100301.28;6146765;23;20080;-73
2022/12/22 12:44:12;;;;;;;9.35;7.13;;;;;;;10.73;100.00;100210.63;6175172;23;20028;-73
2022/12/22 12:46:54;;;;;;;7.90;6.15;;;;;;;10.83;100.00;100271.28;6146169;23;20057;-73
2022/12/22 12:49:32;;;;;;;7.38;6.55;;;;;;;10.78;100.00;100284.69;6141729;23;20548;-72
2022/12/22 12:52:03;;;;;;;6.95;6.10;;;;;;;10.47;100.00;100275.16;6176545;23;20012;-73
2022/12/22 12:54:36;;;;;;;6.55;5.88;;;;;;;10.31;100.00;100285.69;6147962;23;20533;-72
2022/12/22 12:57:19;;;;;;;8.52;6.07;;;;;;;9.83;100.00;100206.25;6149814;23;20534;-73
2022/12/22 12:59:46;;;;;;;;;;;;;;;10.22;100.00;100286.16;6178039;23;20028;-73
2022/12/22 13:02:34;;;;;;;6.53;5.68;;;;;;;10.13;100.00;100289.34;6141187;23;19924;-72
2022/12/22 13:05:10;;;;;;;6.53;5.95;;;;;;;10.01;100.00;100284.78;6170659;23;20024;-73
2022/12/22 13:08:04;;;;;;;7.53;6.72;;;;;;;9.97;100.00;100289.34;6142817;23;20032;-71
2022/12/22 13:10:32;;;;;;;8.43;7.15;;;;;;;9.99;100.00;100288.34;6143744;23;20021;-72
2022/12/22 13:12:59;;;;;;;7.65;6.60;;;;;;;9.98;100.00;100297.13;6130332;23;20545;-72
2022/12/22 13:15:38;;;;;;;7.03;6.53;;;;;;;9.76;100.00;100276.53;6159201;23;20016;-73
2022/12/22 13:18:28;;;;;;;7.07;6.47;;;;;;;9.14;100.00;100173.44;6115535;23;20092;-72
2022/12/22 13:21:00;;;;;;;6.63;5.93;;;;;;;10.11;100.00;100307.78;6164950;23;20409;-72
2022/12/22 13:23:58;;;;;;;6.63;5.97;;;;;;;10.13;100.00;100312.94;6143027;23;20107;-72
2022/12/22 13:26:46;;;;;;;7.88;6.43;;;;;;;10.19;100.00;100316.03;6168662;23;20023;-73
2022/12/22 13:29:17;;;;;;;8.48;6.20;;;;;;;10.27;100.00;100315.63;6143689;23;20032;-72
2022/12/22 13:32:03;;;;;;;5.97;5.68;;;;;;;10.06;100.00;100286.19;6173140;23;20081;-72
2022/12/22 13:34:38;;;;;;;7.38;6.55;;;;;;;9.84;100.00;100278.69;6148721;23;20092;-72
2022/12/22 13:37:26;;;;;;;6.53;6.00;;;;;;;9.90;100.00;100291.50;6171001;23;20098;-71
2022/12/22 13:40:13;;;;;;;9.35;6.32;;;;;;;9.49;100.00;100247.44;6120329;23;20088;-73
2022/12/22 13:42:48;;;;;;;5.95;5.47;;;;;;;9.87;100.00;100314.41;6136995;23;20029;-72
2022/12/22 13:45:38;;;;;;;5.45;5.05;;;;;;;9.89;100.00;100329.09;6153265;23;20028;-71
2022/12/22 13:48:42;;;;;;;6.35;5.95;;;;;;;10.01;100.00;100337.22;6136020;23;20045;-73
2022/12/22 13:51:22;;;;;;;5.50;5.18;;;;;;;9.94;100.00;100340.19;6107481;23;20021;-73
2022/12/22 13:53:53;;;;;;;6.13;5.63;;;;;;;9.94;100.00;100347.19;6143121;23;20574;-73
2022/12/22 13:56:45;;;;;;;10.88;5.82;;;;;;;9.82;100.00;100350.47;6168632;23;20263;-73
2022/12/22 13:59:26;;;;;;;6.13;5.63;;;;;;;9.72;100.00;100352.75;6136566;23;20029;-73
2022/12/22 14:02:02;;;;;;;6.60;6.05;;;;;;;9.50;100.00;100321.63;6145900;23;20274;-73
2022/12/22 14:04:29;;;;;;;6.38;5.88;;;;;;;8.90;100.00;100227.94;6122120;23;20029;-73
2022/12/22 14:06:56;;;;;;;7.22;6.63;;;;;;;9.39;100.00;100314.34;6142570;23;20020;-74
2022/12/22 14:09:26;;;;;;;7.28;6.68;;;;;;;9.47;100.00;100333.13;6149468;23;20658;-73
2022/12/22 14:11:59;;;;;;;5.97;5.38;;;;;;;9.58;100.00;100359.59;6146883;23;20021;-73
2022/12/22 14:14:37;;;;;;;9.45;6.20;;;;;;;9.31;100.00;100321.78;6174145;23;20028;-73
2022/12/22 14:17:17;;;;;;;7.40;5.80;;;;;;;9.68;100.00;100367.81;6143573;23;20061;-73
2022/12/22 14:19:43;;;;;;;5.90;5.45;;;;;;;9.56;100.00;100369.31;6175518;23;20028;-73
2022/12/22 14:22:15;;;;;;;6.18;5.68;;;;;;;9.41;100.00;100364.03;6136693;23;20081;-72
2022/12/22 14:24:46;;;;;;;6.57;5.97;;;;;;;9.25;100.00;100353.53;6177452;23;20024;-72
2022/12/22 14:27:31;;;;;;;11.13;6.32;;;;;;;9.05;100.00;100341.47;6145120;23;20042;-72
2022/12/22 14:30:00;;;;;;;6.20;5.70;;;;;;;8.87;100.00;100338.00;6146709;23;20221;-73
2022/12/22 14:32:38;;;;;;;6.22;5.78;;;;;;;8.79;100.00;100347.09;6151277;23;20033;-73
2022/12/22 14:35:22;;;;;;;6.75;5.53;;;;;;;8.99;100.00;100374.03;6147867;23;20032;-73
2022/12/22 14:37:52;;;;;;;11.65;5.63;;;;;;;7.73;100.00;100197.19;6124867;23;20082;-73
2022/12/22 14:40:41;;;;;;;5.55;5.15;;;;;;;7.53;100.00;100167.66;6169853;23;20028;-73
2022/12/22 14:43:17;;;;;;;5.32;4.93;;;;;;;8.82;100.00;100385.34;6146824;23;20644;-72
2022/12/22 14:45:46;;;;;;;5.68;5.28;;;;;;;8.83;100.00;100380.97;6150059;23;20036;-73
2022/12/22 14:48:27;;;;;;;5.70;5.30;;;;;;;8.85;100.00;100376.50;6152006;23;20479;-72
2022/12/22 14:50:54;;;;;;;6.05;5.65;;;;;;;8.71;100.00;100351.84;6174174;23;20040;-73
2022/12/22 14:53:52;;;;;;;5.55;5.15;;;;;;;8.67;100.00;100350.31;6137884;23;20029;-70
2022/12/22 14:56:19;;;;;;;5.43;4.97;;;;;;;8.04;100.00;100238.38;6118187;23;20049;-72
2022/12/22 14:58:47;;;;;;;5.30;4.68;;;;;;;8.85;100.00;100369.50;6144794;23;20097;-72
2022/12/22 15:01:26;;;;;;;6.75;5.40;;;;;;;8.82;100.00;100364.44;6179147;23;20081;-73
2022/12/22 15:03:58;;;;;;;6.50;5.93;;;;;;;8.39;100.00;100291.50;6150215;23;20103;-72
2022/12/22 15:06:28;;;;;;;5.70;5.15;;;;;;;8.81;100.00;100357.47;6174631;23;20048;-71
2022/12/22 15:09:03;;;;;;;6.10;5.50;;;;;;;8.76;100.00;100359.50;6145581;23;20062;-73
2022/12/22 15:11:36;;;;;;;5.65;5.25;;;;;;;8.73;100.00;100357.88;6148823;23;20005;-71
2022/12/22 15:14:04;;;;;;;6.13;5.60;;;;;;;8.72;100.00;100357.94;6145208;23;20055;-73
2022/12/22 15:16:30;;;;;;;6.60;5.55;;;;;;;8.46;100.00;100322.59;6138030;23;20009;-72
2022/12/22 15:18:57;;;;;;;8.00;5.80;;;;;;;8.54;100.00;100325.72;6146501;23;20025;-72
2022/12/22 15:21:23;;;;;;;8.57;5.97;;;;;;;8.73;100.00;100355.25;6145372;23;20024;-72
2022/12/22 15:23:50;;;;;;;5.45;5.07;;;;;;;8.22;100.00;100270.59;6142973;23;20026;-72
2022/12/22 15:26:16;;;;;;;6.82;5.80;;;;;;;8.74;100.00;100345.63;6150467;23;20536;-72
2022/12/22 15:28:42;;;;;;;5.88;5.47;;;;;;;8.76;100.00;100356.88;6143727;23;20028;-73
2022/12/22 15:31:14;;;;;;;6.32;5.82;;;;;;;8.77;100.00;100355.94;6175504;23;20028;-71
2022/12/22 15:33:41;;;;;;;7.13;6.53;;;;;;;8.18;100.00;100253.38;6148313;23;20076;-72
2022/12/22 15:36:12;;;;;;;6.10;5.50;;;;;;;8.49;100.00;100302.38;6150158;23;20009;-73